This is the latest recevied weather packets stored in our database for station/object CT2IRJ-11. If no packets are shown the sender has not sent any weather packets the latest 10 day(s).
| Time | Temp. | Humidity | Pressure | Rain* | Wind** | Luminosity | Snow |
|---|---|---|---|---|---|---|---|
| 1777640609 | 22.78° C | 50% | 1018.3 hPa | 0 mm | - | 613 W/m² | - |
| 1777640310 | 23.89° C | 48% | 1017.9 hPa | 0 mm | - | 471 W/m² | - |
| 1777640010 | 24.44° C | 47% | 1018.3 hPa | 0 mm | - | 613 W/m² | - |
| 1777639710 | 25° C | 46% | 1018.3 hPa | 0 mm | - | 400 W/m² | - |
| 1777639409 | 23.89° C | 49% | 1018.3 hPa | 0 mm | - | 666 W/m² | - |
| 1777639110 | 23.89° C | 49% | 1018.3 hPa | 0 mm | - | 639 W/m² | - |
| 1777638810 | 22.78° C | 51% | 1018.3 hPa | 0 mm | - | 696 W/m² | - |
| 1777638509 | 22.78° C | 49% | 1018.3 hPa | 0 mm | - | 755 W/m² | - |
| 1777638210 | 22.78° C | 49% | 1018.3 hPa | 0 mm | - | 324 W/m² | - |
| 1777637910 | 22.78° C | 50% | 1018.3 hPa | 0 mm | - | 657 W/m² | - |
| 1777637609 | 23.33° C | 50% | 1018.6 hPa | 0 mm | - | 619 W/m² | - |
| 1777637309 | 22.78° C | 49% | 1018.6 hPa | 0 mm | - | 667 W/m² | - |
| 1777637009 | 22.22° C | 52% | 1019 hPa | 0 mm | - | 707 W/m² | - |
| 1777636709 | 22.78° C | 51% | 1019 hPa | 0 mm | - | 777 W/m² | - |
| 1777636410 | 22.78° C | 51% | 1019 hPa | 0 mm | - | 533 W/m² | - |
| 1777636111 | 22.78° C | 50% | 1019 hPa | 0 mm | - | 670 W/m² | - |
| 1777635809 | 23.33° C | 48% | 1019 hPa | 0 mm | - | 481 W/m² | - |
| 1777635510 | 22.78° C | 51% | 1019 hPa | 0 mm | - | 556 W/m² | - |
| 1777635209 | 21.67° C | 51% | 1019.3 hPa | 0 mm | - | 521 W/m² | - |
| 1777634909 | 21.67° C | 51% | 1019.3 hPa | 0 mm | - | 439 W/m² | - |
| 1777634609 | 21.67° C | 54% | 1019.3 hPa | 0 mm | - | 571 W/m² | - |
| 1777634311 | 21.67° C | 52% | 1019.3 hPa | 0 mm | - | 500 W/m² | - |
| 1777634010 | 22.22° C | 52% | 1019.3 hPa | 0 mm | - | 516 W/m² | - |
| 1777633710 | 22.78° C | 50% | 1019.3 hPa | 0 mm | - | 720 W/m² | - |
| 1777633409 | 22.22° C | 54% | 1019.3 hPa | 0 mm | - | 648 W/m² | - |
* Rain latest hour (hover to see other rain measurements)
** Current wind speed in m/s (hover to see current wind gust speed)